Time;durP1;ratioP1;P1;durP2;ratioP2;P2;SDS_P1;SDS_P2;PMS_P1;PMS_P2;Temp;Humidity;BMP_temperature;BMP_pressure;BME280_temperature;BME280_humidity;BME280_pressure;Samples;Min_cycle;Max_cycle;Signal;HPM_P1;HPM_P2
2022/12/11 00:01:24;;;;;;;;;;;15.40;58.20;;;;;;5059924;28;19971;-9
2022/12/11 00:03:50;;;;;;;;;;;15.40;58.20;;;;;;5075451;28;19909;-9
2022/12/11 00:06:17;;;;;;;;;;;15.50;58.20;;;;;;5042916;28;19909;-9
2022/12/11 00:08:44;;;;;;;;;;;15.50;58.20;;;;;;5042650;28;20019;-9
2022/12/11 00:11:19;;;;;;;;;;;15.50;58.20;;;;;;5060192;28;20191;-9
2022/12/11 00:13:44;;;;;;;;;;;15.50;58.20;;;;;;5059415;28;20445;-9
2022/12/11 00:16:10;;;;;;;;;;;15.50;58.20;;;;;;5059153;28;19970;-9
2022/12/11 00:18:36;;;;;;;;;;;15.40;58.10;;;;;;5059909;28;19908;-9
2022/12/11 00:21:14;;;;;;;;;;;15.50;58.10;;;;;;5058310;28;19909;-9
2022/12/11 00:23:40;;;;;;;;;;;15.50;58.10;;;;;;5069621;28;19912;-9
2022/12/11 00:26:07;;;;;;;;;;;15.50;58.00;;;;;;5079375;28;19974;-9
2022/12/11 00:28:32;;;;;;;;;;;15.50;58.00;;;;;;5079086;28;19998;-9
2022/12/11 00:30:58;;;;;;;;;;;15.60;58.00;;;;;;5079016;28;19958;-9
2022/12/11 00:33:32;;;;;;;;;;;15.60;58.00;;;;;;5076126;28;19920;-9
2022/12/11 00:35:58;;;;;;;;;;;15.60;58.00;;;;;;5041478;28;19999;-9
2022/12/11 00:38:23;;;;;;;;;;;15.50;58.00;;;;;;5025304;28;19992;-9
2022/12/11 00:40:49;;;;;;;;;;;15.60;58.00;;;;;;5058259;28;20200;-9
2022/12/11 00:43:15;;;;;;;;;;;15.50;58.00;;;;;;5059026;28;19909;-9
2022/12/11 00:45:41;;;;;;;;;;;15.50;58.00;;;;;;5058479;28;19935;-9
2022/12/11 00:48:07;;;;;;;;;;;15.50;58.10;;;;;;5058468;28;19908;-9
2022/12/11 00:50:33;;;;;;;;;;;15.50;58.10;;;;;;5041676;28;19909;-9
2022/12/11 00:53:00;;;;;;;;;;;15.50;58.10;;;;;;5055499;28;19909;-9
2022/12/11 00:55:27;;;;;;;;;;;15.50;58.10;;;;;;5077892;28;19912;-9
2022/12/11 00:57:53;;;;;;;;;;;15.50;58.10;;;;;;5078672;28;19909;-9
2022/12/11 01:00:19;;;;;;;;;;;15.50;58.10;;;;;;5061242;28;20179;-9
2022/12/11 01:02:54;;;;;;;;;;;15.40;58.10;;;;;;5079189;28;19918;-9
2022/12/11 01:05:20;;;;;;;;;;;15.40;58.50;;;;;;5077035;28;19951;-9
2022/12/11 01:07:45;;;;;;;;;;;15.50;58.20;;;;;;5061020;28;20001;-9
2022/12/11 01:10:24;;;;;;;;;;;15.50;58.20;;;;;;5079049;28;19959;-9
2022/12/11 01:12:51;;;;;;;;;;;15.50;58.20;;;;;;5077446;28;20007;-9
2022/12/11 01:15:17;;;;;;;;;;;15.50;58.20;;;;;;5077371;28;20006;-9
2022/12/11 01:17:42;;;;;;;;;;;15.40;58.20;;;;;;5077902;28;19919;-9
2022/12/11 01:20:24;;;;;;;;;;;15.40;58.30;;;;;;5078507;28;19912;-9
2022/12/11 01:22:56;;;;;;;;;;;15.40;58.30;;;;;;5078323;28;19912;-9
2022/12/11 01:25:22;;;;;;;;;;;15.40;58.40;;;;;;5078317;28;20439;-9
2022/12/11 01:27:51;;;;;;;;;;;15.40;58.40;;;;;;5078122;28;20090;-9
2022/12/11 01:30:24;;;;;;;;;;;15.40;58.40;;;;;;5078708;28;20429;-9
2022/12/11 01:32:49;;;;;;;;;;;15.40;58.40;;;;;;5078325;28;19908;-9
2022/12/11 01:35:15;;;;;;;;;;;15.30;58.40;;;;;;5078072;28;19924;-9
2022/12/11 01:37:41;;;;;;;;;;;15.30;58.40;;;;;;5077753;28;19947;-9
2022/12/11 01:40:07;;;;;;;;;;;15.30;58.50;;;;;;5078397;28;19909;-9
2022/12/11 01:42:33;;;;;;;;;;;15.30;58.50;;;;;;5077579;28;19944;-9
2022/12/11 01:48:29;;;;;;;;;;;15.30;58.50;;;;;;4996654;28;19924;-9
2022/12/11 01:50:56;;;;;;;;;;;15.30;58.50;;;;;;5077899;28;19916;-9
2022/12/11 01:53:48;;;;;;;;;;;15.30;58.60;;;;;;5077949;28;19908;-9
2022/12/11 01:56:14;;;;;;;;;;;15.30;58.60;;;;;;5056426;28;20177;-9
2022/12/11 01:58:45;;;;;;;;;;;15.20;58.60;;;;;;5077700;28;20292;-9
2022/12/11 02:01:14;;;;;;;;;;;15.20;58.60;;;;;;5060342;28;19909;-9
2022/12/11 02:03:39;;;;;;;;;;;15.20;58.70;;;;;;5060442;28;19913;-9
2022/12/11 02:06:05;;;;;;;;;;;15.20;58.60;;;;;;5060625;28;19919;-9
2022/12/11 02:08:30;;;;;;;;;;;15.20;58.70;;;;;;5078457;28;19919;-9
2022/12/11 02:10:56;;;;;;;;;;;15.20;58.70;;;;;;5060160;28;20191;-9
2022/12/11 02:13:38;;;;;;;;;;;15.10;58.70;;;;;;5077160;28;19959;-9
2022/12/11 02:16:23;;;;;;;;;;;15.20;58.70;;;;;;5073796;28;19908;-9
2022/12/11 02:18:58;;;;;;;;;;;15.20;58.70;;;;;;5077877;28;19908;-9
2022/12/11 02:21:41;;;;;;;;;;;15.20;58.80;;;;;;5078308;28;19909;-9
2022/12/11 02:27:28;;;;;;;;;;;15.20;58.80;;;;;;5081890;28;20300;-9
2022/12/11 02:30:01;;;;;;;;;;;15.20;58.70;;;;;;5080469;28;20006;-9
2022/12/11 02:32:35;;;;;;;;;;;15.20;58.80;;;;;;5062869;28;20175;-9
2022/12/11 02:38:12;;;;;;;;;;;15.10;58.70;;;;;;5056846;28;20287;-9
2022/12/11 02:40:39;;;;;;;;;;;15.10;58.70;;;;;;5032638;28;19947;-9
2022/12/11 02:43:06;;;;;;;;;;;15.10;58.70;;;;;;5078902;28;20181;-9
2022/12/11 02:45:33;;;;;;;;;;;15.10;58.80;;;;;;5080699;28;20004;-9
2022/12/11 02:48:02;;;;;;;;;;;15.10;58.80;;;;;;5080878;28;19924;-9
2022/12/11 02:50:29;;;;;;;;;;;15.10;58.80;;;;;;5066513;28;20258;-9
2022/12/11 02:52:55;;;;;;;;;;;15.10;58.80;;;;;;5061411;28;19908;-9
2022/12/11 02:55:21;;;;;;;;;;;15.10;58.80;;;;;;5068050;28;19920;-9
2022/12/11 02:58:00;;;;;;;;;;;15.10;58.80;;;;;;5061106;28;19992;-9
2022/12/11 03:00:26;;;;;;;;;;;15.10;58.90;;;;;;5044049;28;19912;-9
2022/12/11 03:02:53;;;;;;;;;;;15.10;58.80;;;;;;5061093;28;19962;-9
2022/12/11 03:05:18;;;;;;;;;;;15.00;58.80;;;;;;5072088;28;20257;-9
2022/12/11 03:07:44;;;;;;;;;;;15.00;58.80;;;;;;5061507;28;19909;-9
2022/12/11 03:10:13;;;;;;;;;;;15.00;58.80;;;;;;5061029;28;19908;-9
2022/12/11 03:12:47;;;;;;;;;;;15.00;58.90;;;;;;5061073;28;19917;-9
2022/12/11 03:15:15;;;;;;;;;;;15.00;58.90;;;;;;5043490;28;19916;-9
2022/12/11 03:17:41;;;;;;;;;;;14.90;58.90;;;;;;5043684;28;20262;-9
2022/12/11 03:20:11;;;;;;;;;;;14.90;58.90;;;;;;5060427;28;19955;-9
2022/12/11 03:22:56;;;;;;;;;;;14.90;58.90;;;;;;5061005;28;19909;-9
2022/12/11 03:25:25;;;;;;;;;;;14.90;59.00;;;;;;5060724;28;19920;-9
2022/12/11 03:28:07;;;;;;;;;;;14.90;59.00;;;;;;5059294;28;19995;-9
2022/12/11 03:30:34;;;;;;;;;;;14.90;59.00;;;;;;5041087;28;20007;-9
2022/12/11 03:33:03;;;;;;;;;;;14.90;59.00;;;;;;5041140;28;19908;-9
2022/12/11 03:35:31;;;;;;;;;;;14.90;59.10;;;;;;5041318;28;19971;-9
2022/12/11 03:38:00;;;;;;;;;;;14.80;59.10;;;;;;5040455;28;19916;-9
2022/12/11 03:40:27;;;;;;;;;;;14.80;59.10;;;;;;5041052;28;20003;-9
2022/12/11 03:42:54;;;;;;;;;;;14.80;59.20;;;;;;5058429;28;20296;-9
2022/12/11 03:45:21;;;;;;;;;;;14.80;59.20;;;;;;5040913;28;19908;-9
2022/12/11 03:47:58;;;;;;;;;;;14.70;59.20;;;;;;5044057;28;20205;-9
2022/12/11 03:50:24;;;;;;;;;;;14.70;59.20;;;;;;5060859;28;20305;-9
2022/12/11 03:52:51;;;;;;;;;;;14.70;59.30;;;;;;5060509;28;19908;-9
2022/12/11 03:55:17;;;;;;;;;;;14.70;59.40;;;;;;5042910;28;19923;-9
2022/12/11 03:57:43;;;;;;;;;;;14.60;59.80;;;;;;5057471;28;19909;-9
2022/12/11 04:00:10;;;;;;;;;;;14.60;59.40;;;;;;5058038;28;20166;-9
2022/12/11 04:02:36;;;;;;;;;;;14.60;59.50;;;;;;5039861;28;20197;-9
2022/12/11 04:05:02;;;;;;;;;;;14.50;59.50;;;;;;5073337;28;20293;-9
2022/12/11 04:07:27;;;;;;;;;;;14.50;59.70;;;;;;5040189;28;19908;-9
2022/12/11 04:09:53;;;;;;;;;;;14.50;59.90;;;;;;5057246;28;19927;-9
2022/12/11 04:12:19;;;;;;;;;;;15.40;58.30;;;;;;5057867;28;19912;-9
2022/12/11 04:15:02;;;;;;;;;;;16.40;56.00;;;;;;5039521;28;20115;-9
2022/12/11 04:25:40;;;;;;;;;;;17.80;52.60;;;;;;5056202;28;19920;-9
2022/12/11 04:28:06;;;;;;;;;;;18.00;52.20;;;;;;5071373;28;19913;-9
2022/12/11 04:30:32;;;;;;;;;;;18.10;52.00;;;;;;5056260;28;19917;-9
2022/12/11 04:32:57;;;;;;;;;;;18.30;51.70;;;;;;5056771;28;19909;-9
2022/12/11 04:35:23;;;;;;;;;;;18.40;51.50;;;;;;5056313;28;19920;-9
2022/12/11 04:37:48;;;;;;;;;;;18.50;51.30;;;;;;5055335;28;19967;-9
2022/12/11 04:40:15;;;;;;;;;;;18.60;51.10;;;;;;5036425;28;20073;-9
2022/12/11 04:42:41;;;;;;;;;;;18.70;50.90;;;;;;5055022;28;20309;-9
2022/12/11 04:45:07;;;;;;;;;;;18.70;50.80;;;;;;5070713;28;20325;-9
2022/12/11 04:47:36;;;;;;;;;;;18.70;50.80;;;;;;5036134;28;19909;-9
2022/12/11 04:50:03;;;;;;;;;;;18.70;50.80;;;;;;5036807;28;19995;-9
2022/12/11 04:52:28;;;;;;;;;;;18.60;50.90;;;;;;5055138;28;19919;-9
2022/12/11 04:54:55;;;;;;;;;;;18.50;51.10;;;;;;5056179;28;20190;-9
2022/12/11 04:57:20;;;;;;;;;;;18.30;51.20;;;;;;5056286;28;19961;-9
2022/12/11 04:59:46;;;;;;;;;;;18.20;51.40;;;;;;5055643;28;20007;-9
2022/12/11 05:02:14;;;;;;;;;;;18.10;51.50;;;;;;5055224;28;19912;-9
2022/12/11 05:04:40;;;;;;;;;;;17.90;51.70;;;;;;5055332;28;19927;-9
2022/12/11 05:07:05;;;;;;;;;;;17.80;52.00;;;;;;5056953;28;20182;-9
2022/12/11 05:09:32;;;;;;;;;;;17.70;52.20;;;;;;5055524;28;20003;-9
2022/12/11 05:11:58;;;;;;;;;;;17.50;52.40;;;;;;5038578;28;20248;-9
2022/12/11 05:14:25;;;;;;;;;;;17.40;52.60;;;;;;5054143;28;20288;-9
2022/12/11 05:16:50;;;;;;;;;;;17.20;52.80;;;;;;5056190;28;20204;-9
2022/12/11 05:19:16;;;;;;;;;;;17.10;53.10;;;;;;5054331;28;19920;-9
2022/12/11 05:21:41;;;;;;;;;;;17.00;53.30;;;;;;5054351;28;19908;-9
2022/12/11 05:24:07;;;;;;;;;;;16.80;53.50;;;;;;5054594;28;19916;-9
2022/12/11 05:26:32;;;;;;;;;;;16.70;53.70;;;;;;5033888;28;19979;-9
2022/12/11 05:29:11;;;;;;;;;;;16.60;53.90;;;;;;5045395;28;19909;-9
2022/12/11 05:31:36;;;;;;;;;;;16.50;54.20;;;;;;5058399;28;19963;-9
2022/12/11 05:34:02;;;;;;;;;;;16.30;54.40;;;;;;5039323;28;19913;-9
2022/12/11 05:36:29;;;;;;;;;;;16.20;54.60;;;;;;5053507;28;19974;-9
2022/12/11 05:38:57;;;;;;;;;;;16.20;54.90;;;;;;5052593;28;19909;-9
2022/12/11 05:41:24;;;;;;;;;;;16.10;55.10;;;;;;5052763;28;19909;-9
2022/12/11 05:43:49;;;;;;;;;;;15.90;55.20;;;;;;5052686;28;19939;-9
2022/12/11 05:46:17;;;;;;;;;;;15.90;55.40;;;;;;5053147;28;20003;-9
2022/12/11 05:48:44;;;;;;;;;;;15.80;55.60;;;;;;5053679;28;19909;-9
2022/12/11 05:51:11;;;;;;;;;;;15.80;55.70;;;;;;5037346;28;19905;-9
2022/12/11 05:53:37;;;;;;;;;;;15.80;55.90;;;;;;5037744;28;19909;-9
2022/12/11 05:56:07;;;;;;;;;;;15.70;55.90;;;;;;5056120;28;20017;-9
2022/12/11 05:58:33;;;;;;;;;;;15.80;55.90;;;;;;5055672;28;19922;-9
2022/12/11 06:00:59;;;;;;;;;;;15.80;55.80;;;;;;5056192;28;19999;-9
2022/12/11 06:03:25;;;;;;;;;;;15.90;55.60;;;;;;5056383;28;19909;-9
2022/12/11 06:05:50;;;;;;;;;;;16.10;55.30;;;;;;5055775;28;19909;-9
2022/12/11 06:08:16;;;;;;;;;;;16.30;54.80;;;;;;5055319;28;19909;-9
2022/12/11 06:10:45;;;;;;;;;;;16.60;54.30;;;;;;5055920;28;19909;-9
2022/12/11 06:13:11;;;;;;;;;;;16.90;53.70;;;;;;5055429;28;19909;-9
2022/12/11 06:15:37;;;;;;;;;;;17.20;53.00;;;;;;5071979;28;19927;-9
2022/12/11 06:18:02;;;;;;;;;;;17.50;52.60;;;;;;5037606;28;19909;-9
2022/12/11 06:20:29;;;;;;;;;;;17.60;52.10;;;;;;5056056;28;20285;-9
2022/12/11 06:22:55;;;;;;;;;;;17.80;51.80;;;;;;5055351;28;20000;-9
2022/12/11 06:25:21;;;;;;;;;;;18.00;51.50;;;;;;5071445;28;19995;-9
2022/12/11 06:27:46;;;;;;;;;;;18.10;51.30;;;;;;5055829;28;20251;-9
2022/12/11 06:30:12;;;;;;;;;;;18.10;51.20;;;;;;5056910;28;20331;-9
2022/12/11 06:32:37;;;;;;;;;;;18.10;51.10;;;;;;5062012;28;19912;-9
2022/12/11 06:35:03;;;;;;;;;;;18.10;51.10;;;;;;5072106;28;19916;-9
2022/12/11 06:37:29;;;;;;;;;;;18.00;51.10;;;;;;5059191;28;19916;-9
2022/12/11 06:39:54;;;;;;;;;;;17.90;51.20;;;;;;5057962;28;19909;-9
2022/12/11 06:42:20;;;;;;;;;;;17.80;51.30;;;;;;5057251;28;19974;-9
2022/12/11 06:44:47;;;;;;;;;;;17.70;51.40;;;;;;5057605;28;19909;-9
2022/12/11 06:47:12;;;;;;;;;;;17.60;51.50;;;;;;5056338;28;19966;-9
2022/12/11 06:49:38;;;;;;;;;;;17.50;51.70;;;;;;5056795;28;19908;-9
2022/12/11 06:52:04;;;;;;;;;;;17.40;51.90;;;;;;5056749;28;19982;-9
2022/12/11 06:54:30;;;;;;;;;;;17.30;52.10;;;;;;5057594;28;19916;-9
2022/12/11 06:56:56;;;;;;;;;;;17.10;52.20;;;;;;5057811;28;19916;-9
2022/12/11 06:59:21;;;;;;;;;;;17.00;52.50;;;;;;5054097;28;20209;-9
2022/12/11 07:01:47;;;;;;;;;;;16.90;52.70;;;;;;5053289;28;20022;-9
2022/12/11 07:04:12;;;;;;;;;;;16.80;52.90;;;;;;5054567;28;19974;-9
2022/12/11 07:06:39;;;;;;;;;;;16.60;53.00;;;;;;5057883;28;19974;-9
2022/12/11 07:09:05;;;;;;;;;;;16.60;53.20;;;;;;5065233;28;19908;-9
2022/12/11 07:11:50;;;;;;;;;;;16.40;53.50;;;;;;5043952;28;19913;-9
2022/12/11 07:14:16;;;;;;;;;;;16.40;53.70;;;;;;5060908;28;19966;-9
2022/12/11 07:16:41;;;;;;;;;;;16.30;53.90;;;;;;5057380;28;19913;-9
2022/12/11 07:19:07;;;;;;;;;;;16.20;54.00;;;;;;5058802;28;19963;-9
2022/12/11 07:21:33;;;;;;;;;;;16.10;54.10;;;;;;5060277;28;19916;-9
2022/12/11 07:23:58;;;;;;;;;;;16.10;54.30;;;;;;5058979;28;20003;-9
2022/12/11 07:26:24;;;;;;;;;;;16.00;54.30;;;;;;5077101;28;19959;-9
2022/12/11 07:28:49;;;;;;;;;;;16.00;54.40;;;;;;5057945;28;19915;-9
2022/12/11 07:31:17;;;;;;;;;;;16.00;54.40;;;;;;5056207;28;19909;-9
2022/12/11 07:33:43;;;;;;;;;;;16.00;54.40;;;;;;5056284;28;19909;-9
2022/12/11 07:36:09;;;;;;;;;;;16.10;54.30;;;;;;5057226;28;19912;-9
2022/12/11 07:38:35;;;;;;;;;;;16.20;54.20;;;;;;5055865;28;20177;-9
2022/12/11 07:41:01;;;;;;;;;;;16.30;54.00;;;;;;5057052;28;20254;-9
2022/12/11 07:43:27;;;;;;;;;;;16.40;53.80;;;;;;5057678;28;19917;-9
2022/12/11 07:45:53;;;;;;;;;;;16.50;53.60;;;;;;5056989;28;19995;-9
2022/12/11 07:48:18;;;;;;;;;;;16.60;53.40;;;;;;5054464;28;19920;-9
2022/12/11 07:50:44;;;;;;;;;;;16.70;53.20;;;;;;5054811;28;20136;-9
2022/12/11 07:53:09;;;;;;;;;;;16.80;52.90;;;;;;5053711;28;19912;-9
2022/12/11 07:55:35;;;;;;;;;;;16.90;52.70;;;;;;5054452;28;19912;-9
2022/12/11 07:58:01;;;;;;;;;;;17.10;52.50;;;;;;5055154;28;19935;-9
2022/12/11 08:00:26;;;;;;;;;;;17.10;52.30;;;;;;5053839;28;20267;-9
2022/12/11 08:02:52;;;;;;;;;;;17.20;52.10;;;;;;5053761;28;19908;-9
2022/12/11 08:05:18;;;;;;;;;;;17.30;52.10;;;;;;5054346;28;20013;-9
2022/12/11 08:07:43;;;;;;;;;;;17.40;51.90;;;;;;5054791;28;19919;-9
2022/12/11 08:10:09;;;;;;;;;;;17.40;51.80;;;;;;5053901;28;19908;-9
2022/12/11 08:12:34;;;;;;;;;;;17.50;51.70;;;;;;5056640;28;19912;-9
2022/12/11 08:15:00;;;;;;;;;;;17.50;51.60;;;;;;5055170;28;20266;-9
2022/12/11 08:17:26;;;;;;;;;;;17.50;51.60;;;;;;5054066;28;19924;-9
2022/12/11 08:19:52;;;;;;;;;;;17.50;51.50;;;;;;5053373;28;19923;-9
2022/12/11 08:22:17;;;;;;;;;;;17.50;51.40;;;;;;5053920;28;19916;-9
2022/12/11 08:24:45;;;;;;;;;;;17.50;51.40;;;;;;5052098;28;19913;-9
2022/12/11 08:27:10;;;;;;;;;;;17.50;51.40;;;;;;5052799;28;20014;-9
2022/12/11 08:29:36;;;;;;;;;;;17.50;51.40;;;;;;5052386;28;19970;-9
2022/12/11 08:32:02;;;;;;;;;;;17.50;51.50;;;;;;5052988;28;19962;-9
2022/12/11 08:34:27;;;;;;;;;;;17.40;51.50;;;;;;5051032;28;19913;-9
2022/12/11 08:36:53;;;;;;;;;;;17.40;51.50;;;;;;5069222;28;20003;-9
2022/12/11 08:39:19;;;;;;;;;;;17.40;51.60;;;;;;5050733;28;19908;-9
2022/12/11 08:41:44;;;;;;;;;;;17.20;51.70;;;;;;5052207;28;20192;-9
2022/12/11 08:44:11;;;;;;;;;;;17.20;51.90;;;;;;5050780;28;19979;-9
2022/12/11 08:46:37;;;;;;;;;;;17.10;51.90;;;;;;5034696;28;19946;-9
2022/12/11 08:49:02;;;;;;;;;;;17.00;52.00;;;;;;5075892;28;19973;-9
2022/12/11 08:51:29;;;;;;;;;;;17.00;52.10;;;;;;5075260;28;19912;-9
2022/12/11 08:53:56;;;;;;;;;;;16.90;52.20;;;;;;5056802;28;19909;-9
2022/12/11 08:56:25;;;;;;;;;;;16.90;52.20;;;;;;5056765;28;20327;-9
2022/12/11 08:58:50;;;;;;;;;;;16.80;52.80;;;;;;5058374;28;19971;-9
2022/12/11 09:01:23;;;;;;;;;;;16.80;52.50;;;;;;5060316;28;20323;-9
2022/12/11 09:03:54;;;;;;;;;;;16.70;52.50;;;;;;5046860;28;19970;-9
2022/12/11 09:06:21;;;;;;;;;;;16.70;52.70;;;;;;5058695;28;19909;-9
2022/12/11 09:08:47;;;;;;;;;;;16.60;52.80;;;;;;5077765;28;20062;-9
2022/12/11 09:11:14;;;;;;;;;;;16.50;52.90;;;;;;5077265;28;20285;-9
2022/12/11 09:13:40;;;;;;;;;;;16.50;53.10;;;;;;5050085;28;20196;-9
2022/12/11 09:16:06;;;;;;;;;;;16.40;53.20;;;;;;5057821;28;19913;-9
2022/12/11 09:18:32;;;;;;;;;;;16.30;53.40;;;;;;5057911;28;19909;-9
2022/12/11 09:21:01;;;;;;;;;;;16.20;53.60;;;;;;5056693;28;19962;-9
2022/12/11 09:23:36;;;;;;;;;;;16.10;53.80;;;;;;5056793;28;19991;-9
2022/12/11 09:26:03;;;;;;;;;;;16.00;54.10;;;;;;5056481;28;19909;-9
2022/12/11 09:28:29;;;;;;;;;;;15.90;54.40;;;;;;5055966;28;19909;-9
2022/12/11 09:30:55;;;;;;;;;;;15.80;54.70;;;;;;5041330;28;20191;-9
2022/12/11 09:33:20;;;;;;;;;;;15.70;55.00;;;;;;5076120;28;19908;-9
2022/12/11 09:35:50;;;;;;;;;;;15.60;55.20;;;;;;5058403;28;19913;-9
2022/12/11 09:38:16;;;;;;;;;;;15.60;55.40;;;;;;5076650;28;19954;-9
2022/12/11 09:40:42;;;;;;;;;;;15.70;55.50;;;;;;5077020;28;19940;-9
2022/12/11 09:43:39;;;;;;;;;;;15.80;55.40;;;;;;5059562;28;19909;-9
2022/12/11 09:46:09;;;;;;;;;;;16.00;55.20;;;;;;5070428;28;20230;-9
2022/12/11 09:48:35;;;;;;;;;;;16.50;54.50;;;;;;5077708;28;20429;-9
2022/12/11 09:51:04;;;;;;;;;;;17.10;53.60;;;;;;5075756;28;19921;-9
2022/12/11 09:53:33;;;;;;;;;;;17.70;52.60;;;;;;5051056;28;19919;-9
2022/12/11 09:56:03;;;;;;;;;;;18.20;51.80;;;;;;5050482;28;20400;-9
2022/12/11 09:58:32;;;;;;;;;;;18.40;51.30;;;;;;5050259;28;19973;-9
2022/12/11 10:01:04;;;;;;;;;;;18.50;51.20;;;;;;5068610;28;19908;-9
2022/12/11 10:03:38;;;;;;;;;;;18.60;51.10;;;;;;5067714;28;19946;-9
2022/12/11 10:06:12;;;;;;;;;;;18.60;50.90;;;;;;5049294;28;20143;-9
2022/12/11 10:08:44;;;;;;;;;;;18.60;50.80;;;;;;5068750;28;20238;-9
2022/12/11 10:11:12;;;;;;;;;;;18.60;50.80;;;;;;5069046;28;20065;-9
2022/12/11 10:13:51;;;;;;;;;;;18.60;51.00;;;;;;5068863;28;20185;-9
2022/12/11 10:16:23;;;;;;;;;;;18.50;51.00;;;;;;5069068;28;20065;-9
2022/12/11 10:18:50;;;;;;;;;;;18.40;51.20;;;;;;5070016;28;19909;-9
2022/12/11 10:21:17;;;;;;;;;;;18.30;51.30;;;;;;5069338;28;19915;-9
2022/12/11 10:23:45;;;;;;;;;;;18.10;51.50;;;;;;5070236;28;20216;-9
2022/12/11 10:26:14;;;;;;;;;;;18.00;51.80;;;;;;5069482;28;19908;-9
2022/12/11 10:28:40;;;;;;;;;;;17.80;52.10;;;;;;5049851;28;19912;-9
2022/12/11 10:31:26;;;;;;;;;;;17.70;52.30;;;;;;5069329;28;20201;-9
2022/12/11 10:33:57;;;;;;;;;;;17.60;52.60;;;;;;5053628;28;20009;-9
2022/12/11 10:36:27;;;;;;;;;;;17.30;52.80;;;;;;5068779;28;19908;-9
2022/12/11 10:38:53;;;;;;;;;;;17.20;53.00;;;;;;5069599;28;19966;-9
2022/12/11 10:41:23;;;;;;;;;;;17.10;53.30;;;;;;5071942;28;19943;-9
2022/12/11 10:43:50;;;;;;;;;;;17.00;53.50;;;;;;5055190;28;20185;-9
2022/12/11 10:46:23;;;;;;;;;;;16.90;53.70;;;;;;5054394;28;19913;-9
2022/12/11 10:48:57;;;;;;;;;;;16.70;53.90;;;;;;5072485;28;19915;-9
2022/12/11 10:51:24;;;;;;;;;;;16.60;54.10;;;;;;5073775;28;20074;-9
2022/12/11 10:53:54;;;;;;;;;;;16.50;54.30;;;;;;5074289;28;19948;-9
2022/12/11 10:56:27;;;;;;;;;;;16.40;54.50;;;;;;5072403;28;20258;-9
2022/12/11 10:58:55;;;;;;;;;;;16.30;54.60;;;;;;5072314;28;19908;-9
2022/12/11 11:01:22;;;;;;;;;;;16.20;54.70;;;;;;5053581;28;20144;-9
2022/12/11 11:03:54;;;;;;;;;;;16.10;54.90;;;;;;5071955;28;19908;-9
2022/12/11 11:06:20;;;;;;;;;;;16.10;55.00;;;;;;5070275;28;20184;-9
2022/12/11 11:08:51;;;;;;;;;;;16.00;55.10;;;;;;5069900;28;20122;-9
2022/12/11 11:11:35;;;;;;;;;;;16.00;55.20;;;;;;5043495;28;19908;-9
2022/12/11 11:14:13;;;;;;;;;;;16.10;55.00;;;;;;5039901;28;20488;-9
2022/12/11 11:16:39;;;;;;;;;;;16.30;54.60;;;;;;5039195;28;20205;-9
2022/12/11 11:19:05;;;;;;;;;;;16.60;54.10;;;;;;5057574;28;19916;-9
2022/12/11 11:21:31;;;;;;;;;;;16.90;53.40;;;;;;5035006;28;20015;-9
2022/12/11 11:23:56;;;;;;;;;;;17.20;52.70;;;;;;5050623;28;19909;-9
2022/12/11 11:26:23;;;;;;;;;;;17.50;52.10;;;;;;5051327;28;19909;-9
2022/12/11 11:28:53;;;;;;;;;;;17.70;51.70;;;;;;5033679;28;20341;-9
2022/12/11 11:31:20;;;;;;;;;;;17.90;51.30;;;;;;5050713;28;19913;-9
2022/12/11 11:33:57;;;;;;;;;;;18.00;51.00;;;;;;5048700;28;19917;-9
2022/12/11 11:36:24;;;;;;;;;;;18.10;50.80;;;;;;5049225;28;19908;-9
2022/12/11 11:39:02;;;;;;;;;;;18.10;50.70;;;;;;5050948;28;19944;-9
2022/12/11 11:41:36;;;;;;;;;;;18.10;50.70;;;;;;5050238;28;19908;-9
2022/12/11 11:44:04;;;;;;;;;;;18.10;50.70;;;;;;5050837;28;19921;-9
2022/12/11 11:46:45;;;;;;;;;;;18.00;50.80;;;;;;5051990;28;20011;-9
2022/12/11 11:49:21;;;;;;;;;;;17.80;50.90;;;;;;5032354;28;20481;-9
2022/12/11 11:51:50;;;;;;;;;;;17.70;51.20;;;;;;5050225;28;19912;-9
2022/12/11 11:54:23;;;;;;;;;;;17.60;51.20;;;;;;5031341;28;19983;-9
2022/12/11 11:56:50;;;;;;;;;;;17.40;51.30;;;;;;5050844;28;19909;-9
2022/12/11 11:59:35;;;;;;;;;;;17.30;51.60;;;;;;5052193;28;20098;-9
2022/12/11 12:02:00;;;;;;;;;;;17.10;51.80;;;;;;5051773;28;19920;-9
2022/12/11 12:04:30;;;;;;;;;;;17.00;51.90;;;;;;5033279;28;19908;-9
2022/12/11 12:07:24;;;;;;;;;;;16.90;52.10;;;;;;5051447;28;19999;-9
2022/12/11 12:10:03;;;;;;;;;;;16.80;52.20;;;;;;5016759;28;19919;-9
2022/12/11 12:12:28;;;;;;;;;;;16.70;52.40;;;;;;5050818;28;19909;-9
2022/12/11 12:15:00;;;;;;;;;;;16.60;52.60;;;;;;5051766;28;20174;-9
2022/12/11 12:17:37;;;;;;;;;;;16.40;52.70;;;;;;5050209;28;20254;-9
2022/12/11 12:20:09;;;;;;;;;;;16.40;52.90;;;;;;5032957;28;19975;-9
2022/12/11 12:22:54;;;;;;;;;;;16.30;53.10;;;;;;5049298;28;19916;-9
2022/12/11 12:25:33;;;;;;;;;;;16.20;53.20;;;;;;5048922;28;19913;-9
2022/12/11 12:27:59;;;;;;;;;;;16.10;53.30;;;;;;5048319;28;20065;-9
2022/12/11 12:30:25;;;;;;;;;;;16.10;53.50;;;;;;5049716;28;19923;-9
2022/12/11 12:33:06;;;;;;;;;;;16.00;53.60;;;;;;5050210;28;20266;-9
2022/12/11 12:35:34;;;;;;;;;;;16.10;53.70;;;;;;5050614;28;19943;-9
2022/12/11 12:38:19;;;;;;;;;;;16.00;53.60;;;;;;5033762;28;19966;-9
2022/12/11 12:41:03;;;;;;;;;;;16.00;53.70;;;;;;5050254;28;19916;-9
2022/12/11 12:43:31;;;;;;;;;;;16.10;53.70;;;;;;5050525;28;19908;-9
2022/12/11 12:46:16;;;;;;;;;;;16.20;53.60;;;;;;5049699;28;20270;-9
2022/12/11 12:48:43;;;;;;;;;;;16.30;53.20;;;;;;5048412;28;19908;-9
2022/12/11 12:51:12;;;;;;;;;;;16.50;52.90;;;;;;5051954;28;20266;-9
2022/12/11 12:53:38;;;;;;;;;;;16.80;52.60;;;;;;5040846;28;19967;-9
2022/12/11 12:56:10;;;;;;;;;;;16.90;52.20;;;;;;5058003;28;19955;-9
2022/12/11 12:58:41;;;;;;;;;;;17.10;52.00;;;;;;5057980;28;20427;-9
2022/12/11 13:01:08;;;;;;;;;;;17.20;51.80;;;;;;5037120;28;20218;-9
2022/12/11 13:03:57;;;;;;;;;;;17.40;51.70;;;;;;5039659;28;19967;-9
2022/12/11 13:06:31;;;;;;;;;;;17.50;51.50;;;;;;5060196;28;19917;-9
2022/12/11 13:08:57;;;;;;;;;;;17.70;51.20;;;;;;5046546;28;19913;-9
2022/12/11 13:11:30;;;;;;;;;;;17.80;51.00;;;;;;5051244;28;20236;-9
2022/12/11 13:14:04;;;;;;;;;;;17.90;50.90;;;;;;5033962;28;20011;-9
2022/12/11 13:16:35;;;;;;;;;;;18.00;50.90;;;;;;5051630;28;19944;-9
2022/12/11 13:19:01;;;;;;;;;;;18.00;50.80;;;;;;5050355;28;20131;-9
2022/12/11 13:21:26;;;;;;;;;;;18.00;50.90;;;;;;5049555;28;20344;-9
2022/12/11 13:23:53;;;;;;;;;;;17.90;50.90;;;;;;5031195;28;19940;-9
2022/12/11 13:26:28;;;;;;;;;;;17.80;51.10;;;;;;5046788;28;20305;-9
2022/12/11 13:28:54;;;;;;;;;;;17.70;51.30;;;;;;5045638;28;20187;-9
2022/12/11 13:31:21;;;;;;;;;;;17.60;51.50;;;;;;5029783;28;19909;-9
2022/12/11 13:33:57;;;;;;;;;;;17.50;51.80;;;;;;5048514;28;20245;-9
2022/12/11 13:36:28;;;;;;;;;;;17.40;52.00;;;;;;5049950;28;19913;-9
2022/12/11 13:38:56;;;;;;;;;;;17.30;52.20;;;;;;5031601;28;19924;-9
2022/12/11 13:41:22;;;;;;;;;;;17.10;52.40;;;;;;5049251;28;19995;-9
2022/12/11 13:43:48;;;;;;;;;;;17.00;52.60;;;;;;5049476;28;20011;-9
2022/12/11 13:46:18;;;;;;;;;;;16.90;52.90;;;;;;5050260;28;19909;-9
2022/12/11 13:48:47;;;;;;;;;;;16.70;53.00;;;;;;5047334;28;19909;-9
2022/12/11 13:51:15;;;;;;;;;;;16.60;53.30;;;;;;5051111;28;20198;-9
2022/12/11 13:53:40;;;;;;;;;;;16.60;53.50;;;;;;5049316;28;19911;-9
2022/12/11 13:56:15;;;;;;;;;;;16.50;53.70;;;;;;5049407;28;19924;-9
2022/12/11 13:58:40;;;;;;;;;;;16.40;53.90;;;;;;5049754;28;19917;-9
2022/12/11 14:01:11;;;;;;;;;;;16.30;54.00;;;;;;5047976;28;19908;-9
2022/12/11 14:03:49;;;;;;;;;;;16.30;54.20;;;;;;5049912;28;20149;-9
2022/12/11 14:06:23;;;;;;;;;;;16.20;54.40;;;;;;5039585;28;19999;-9
2022/12/11 14:08:52;;;;;;;;;;;16.20;54.70;;;;;;5036488;28;19928;-9
2022/12/11 14:11:20;;;;;;;;;;;16.10;54.90;;;;;;5047641;28;19920;-9
2022/12/11 14:13:46;;;;;;;;;;;16.10;55.10;;;;;;5052919;28;19913;-9
2022/12/11 14:16:22;;;;;;;;;;;16.10;55.30;;;;;;5051574;28;19913;-9
2022/12/11 14:18:48;;;;;;;;;;;16.00;55.50;;;;;;5029143;28;19916;-9
2022/12/11 14:21:18;;;;;;;;;;;16.00;55.80;;;;;;5052441;28;19908;-9
2022/12/11 14:23:49;;;;;;;;;;;16.00;56.10;;;;;;5054392;28;19909;-9
2022/12/11 14:26:17;;;;;;;;;;;16.00;56.20;;;;;;5053554;28;19909;-9
2022/12/11 14:28:42;;;;;;;;;;;16.10;56.30;;;;;;5050927;28;20233;-9
2022/12/11 14:31:11;;;;;;;;;;;16.20;56.30;;;;;;5051478;28;20276;-9
2022/12/11 14:33:39;;;;;;;;;;;16.30;56.20;;;;;;5052184;28;19916;-9
2022/12/11 14:36:05;;;;;;;;;;;16.50;55.90;;;;;;5052841;28;20274;-9
2022/12/11 14:38:34;;;;;;;;;;;16.70;55.70;;;;;;5068460;28;20269;-9
2022/12/11 14:41:03;;;;;;;;;;;16.80;55.40;;;;;;5072080;28;20297;-9
2022/12/11 14:43:34;;;;;;;;;;;17.00;55.10;;;;;;5073234;28;19991;-9
2022/12/11 14:46:03;;;;;;;;;;;17.20;54.90;;;;;;5053685;28;19908;-9
2022/12/11 14:48:32;;;;;;;;;;;17.30;54.70;;;;;;5070737;28;20011;-9
2022/12/11 14:51:00;;;;;;;;;;;17.30;54.60;;;;;;5068905;28;20457;-9
2022/12/11 14:53:28;;;;;;;;;;;17.30;54.50;;;;;;5071531;28;19909;-9
2022/12/11 14:55:55;;;;;;;;;;;17.30;54.60;;;;;;5053965;28;20089;-9
2022/12/11 14:58:22;;;;;;;;;;;17.30;54.70;;;;;;5073259;28;19916;-9